createdAt,value
2022-11-29T00:01:01.863Z,4.70
2022-11-29T00:03:29.564Z,4.67
2022-11-29T00:05:56.035Z,4.62
2022-11-29T00:08:23.849Z,4.57
2022-11-29T00:10:50.473Z,4.58
2022-11-29T00:13:17.928Z,4.57
2022-11-29T00:15:44.348Z,4.51
2022-11-29T00:18:10.675Z,4.52
2022-11-29T00:20:39.037Z,4.49
2022-11-29T00:23:05.509Z,4.48
2022-11-29T00:25:31.982Z,4.39
2022-11-29T00:27:58.327Z,4.36
2022-11-29T00:30:24.947Z,4.35
2022-11-29T00:32:51.505Z,4.34
2022-11-29T00:35:18.099Z,4.36
2022-11-29T00:37:44.446Z,4.34
2022-11-29T00:40:11.473Z,4.39
2022-11-29T00:42:37.823Z,4.37
2022-11-29T00:45:04.621Z,4.34
2022-11-29T00:47:30.971Z,4.29
2022-11-29T00:49:57.312Z,4.30
2022-11-29T00:52:23.673Z,4.31
2022-11-29T00:54:50.124Z,4.32
2022-11-29T00:57:16.466Z,4.31
2022-11-29T00:59:42.894Z,4.30
2022-11-29T01:02:09.261Z,4.33
2022-11-29T01:04:35.728Z,4.29
2022-11-29T01:07:02.050Z,4.32
2022-11-29T01:09:28.386Z,4.34
2022-11-29T01:11:54.810Z,4.36
2022-11-29T01:14:21.173Z,4.38
2022-11-29T01:16:47.537Z,4.41
2022-11-29T01:19:14.014Z,4.39
2022-11-29T01:21:41.163Z,4.41
2022-11-29T01:24:07.713Z,4.44
2022-11-29T01:26:34.060Z,4.49
2022-11-29T01:29:00.469Z,4.51
2022-11-29T01:31:33.073Z,4.53
2022-11-29T01:34:01.505Z,4.52
2022-11-29T01:36:28.705Z,4.48
2022-11-29T01:38:55.182Z,4.49
2022-11-29T01:41:27.556Z,4.51
2022-11-29T01:44:07.040Z,4.56
2022-11-29T01:46:36.013Z,4.55
2022-11-29T01:49:07.799Z,4.55
2022-11-29T01:51:37.579Z,4.54
2022-11-29T01:54:05.206Z,4.57
2022-11-29T01:56:33.868Z,4.59
2022-11-29T01:59:03.282Z,4.64
2022-11-29T02:01:29.656Z,4.67
2022-11-29T02:03:56.034Z,4.61
2022-11-29T02:06:23.611Z,4.62
2022-11-29T02:08:50.037Z,4.55
2022-11-29T02:11:42.490Z,4.48
2022-11-29T02:14:23.849Z,4.41
2022-11-29T02:17:28.823Z,4.42
2022-11-29T02:20:22.899Z,4.44
2022-11-29T02:23:08.241Z,4.47
2022-11-29T02:25:59.367Z,4.48
2022-11-29T02:29:09.599Z,4.46
2022-11-29T02:31:59.943Z,4.48
2022-11-29T02:34:37.930Z,4.46
2022-11-29T02:37:30.341Z,4.46
2022-11-29T02:40:20.514Z,4.55
2022-11-29T02:43:07.324Z,4.63
2022-11-29T02:46:05.103Z,4.66
2022-11-29T02:49:00.342Z,4.72
2022-11-29T02:51:42.938Z,4.73
2022-11-29T02:54:25.734Z,4.69
2022-11-29T02:57:06.949Z,4.74
2022-11-29T02:59:41.346Z,4.78
2022-11-29T03:02:35.691Z,4.77
2022-11-29T03:05:17.008Z,4.77
2022-11-29T03:08:19.923Z,4.81
2022-11-29T03:11:06.584Z,4.84
2022-11-29T03:13:41.911Z,4.88
2022-11-29T03:16:28.461Z,4.93
2022-11-29T03:19:05.796Z,4.96
2022-11-29T03:21:52.289Z,4.98
2022-11-29T03:24:25.907Z,5.00
2022-11-29T03:27:17.104Z,5.06
2022-11-29T03:30:04.039Z,5.09
2022-11-29T03:32:56.984Z,5.14
2022-11-29T03:35:53.444Z,5.17
2022-11-29T03:38:41.384Z,5.12
2022-11-29T03:41:28.227Z,5.12
2022-11-29T03:44:04.049Z,5.16
2022-11-29T03:47:07.702Z,5.13
2022-11-29T03:49:42.619Z,5.12
2022-11-29T03:52:19.821Z,5.18
2022-11-29T03:55:00.600Z,5.21
2022-11-29T03:57:45.424Z,5.23
2022-11-29T04:00:13.762Z,5.21
2022-11-29T04:03:06.218Z,5.17
2022-11-29T04:05:54.377Z,5.14
2022-11-29T04:08:32.500Z,5.16
2022-11-29T04:11:28.093Z,5.10
2022-11-29T04:13:59.062Z,5.10
2022-11-29T04:17:02.536Z,5.11
2022-11-29T04:19:42.704Z,5.13
2022-11-29T04:22:26.520Z,5.14
2022-11-29T04:25:03.324Z,5.14
2022-11-29T04:27:36.037Z,5.18
2022-11-29T04:30:25.851Z,5.21
2022-11-29T04:33:14.167Z,5.23
2022-11-29T04:35:52.735Z,5.21
2022-11-29T04:38:47.861Z,5.24
2022-11-29T04:41:17.205Z,5.26
2022-11-29T04:44:02.022Z,5.24
2022-11-29T04:46:49.691Z,5.21
2022-11-29T04:49:45.711Z,5.22
2022-11-29T04:52:38.038Z,5.22
2022-11-29T04:55:37.050Z,5.28
2022-11-29T04:58:21.949Z,5.31
2022-11-29T05:01:09.473Z,5.28
2022-11-29T05:03:41.405Z,5.29
2022-11-29T05:06:22.773Z,5.32
2022-11-29T05:09:06.378Z,5.37
2022-11-29T05:11:44.704Z,5.40
2022-11-29T05:14:31.948Z,5.42
2022-11-29T05:17:21.601Z,5.41
2022-11-29T05:20:18.087Z,5.41
2022-11-29T05:23:33.489Z,5.43
2022-11-29T05:26:14.795Z,5.46
2022-11-29T05:28:56.413Z,5.48
2022-11-29T05:31:59.692Z,5.49
2022-11-29T05:34:34.566Z,5.49
2022-11-29T05:37:15.676Z,5.46
2022-11-29T05:39:57.477Z,5.47
2022-11-29T05:42:29.822Z,5.46
2022-11-29T05:45:21.040Z,5.49
2022-11-29T05:47:59.261Z,5.50
2022-11-29T05:50:42.822Z,5.50
2022-11-29T05:53:24.677Z,5.47
2022-11-29T05:56:15.204Z,5.45
2022-11-29T05:58:56.372Z,5.44
2022-11-29T06:01:28.447Z,5.43
2022-11-29T06:04:02.378Z,5.43
2022-11-29T06:06:57.774Z,5.43
2022-11-29T06:09:41.735Z,5.42
2022-11-29T06:12:21.340Z,5.43
2022-11-29T06:14:56.971Z,5.31
2022-11-29T06:17:39.398Z,5.23
2022-11-29T06:20:13.009Z,5.22
2022-11-29T06:22:55.951Z,5.22
2022-11-29T06:26:07.492Z,5.21
2022-11-29T06:28:33.874Z,5.20
2022-11-29T06:31:15.480Z,5.20
2022-11-29T06:33:56.333Z,5.22
2022-11-29T06:36:38.538Z,5.25
2022-11-29T06:39:05.547Z,5.28
2022-11-29T06:41:32.236Z,5.37
2022-11-29T06:43:58.903Z,5.44
2022-11-29T06:46:45.585Z,5.49
2022-11-29T06:49:28.384Z,5.54
2022-11-29T06:52:13.654Z,5.61
2022-11-29T06:55:04.636Z,5.61
2022-11-29T06:57:58.806Z,5.63
2022-11-29T07:00:28.137Z,5.61
2022-11-29T07:03:00.751Z,5.55
2022-11-29T07:05:32.188Z,5.52
2022-11-29T07:08:04.654Z,5.54
2022-11-29T07:10:33.173Z,5.58
2022-11-29T07:12:59.924Z,5.64
2022-11-29T07:15:28.042Z,5.59
2022-11-29T07:18:03.535Z,5.62
2022-11-29T07:20:41.890Z,5.64
2022-11-29T07:23:22.025Z,5.64
2022-11-29T07:25:58.809Z,5.68
2022-11-29T07:29:07.052Z,5.67
2022-11-29T07:32:15.122Z,5.64
2022-11-29T07:34:47.994Z,5.62
2022-11-29T07:37:33.336Z,5.62
2022-11-29T07:40:02.320Z,5.68
2022-11-29T07:42:35.483Z,5.72
2022-11-29T07:45:36.765Z,5.72
2022-11-29T07:48:04.869Z,5.71
2022-11-29T07:50:31.715Z,5.72
2022-11-29T07:52:59.281Z,5.73
2022-11-29T07:55:27.169Z,5.67
2022-11-29T07:57:53.818Z,5.70
2022-11-29T08:00:20.647Z,5.73
2022-11-29T08:02:50.204Z,5.73
2022-11-29T08:05:16.754Z,5.75
2022-11-29T08:07:43.705Z,5.73
2022-11-29T08:10:13.714Z,5.73
2022-11-29T08:12:48.586Z,5.63
2022-11-29T08:15:15.715Z,5.64
2022-11-29T08:17:42.192Z,5.67
2022-11-29T08:20:10.648Z,5.69
2022-11-29T08:22:37.464Z,5.69
2022-11-29T08:25:04.873Z,5.71
2022-11-29T08:27:31.582Z,5.72
2022-11-29T08:29:57.998Z,5.79
2022-11-29T08:32:25.306Z,5.86
2022-11-29T08:34:51.784Z,5.91
2022-11-29T08:37:18.286Z,5.94
2022-11-29T08:39:44.647Z,5.88
2022-11-29T08:42:11.390Z,5.81
2022-11-29T08:44:37.742Z,5.77
2022-11-29T08:47:22.797Z,5.76
2022-11-29T08:50:04.357Z,5.70
2022-11-29T08:52:52.020Z,5.80
2022-11-29T08:55:20.101Z,5.86
2022-11-29T08:57:47.495Z,5.93
2022-11-29T09:00:14.698Z,5.99
2022-11-29T09:02:41.254Z,6.01
2022-11-29T09:05:09.734Z,6.05
2022-11-29T09:07:36.378Z,6.08
2022-11-29T09:10:08.025Z,6.08
2022-11-29T09:12:35.955Z,6.13
2022-11-29T09:15:04.944Z,6.17
2022-11-29T09:17:31.257Z,6.22
2022-11-29T09:19:57.690Z,6.23
2022-11-29T09:22:24.066Z,6.23
2022-11-29T09:24:50.431Z,6.24
2022-11-29T09:27:16.854Z,6.29
2022-11-29T09:29:43.313Z,6.32
2022-11-29T09:32:09.826Z,6.33
2022-11-29T09:34:36.753Z,6.42
2022-11-29T09:37:05.157Z,6.46
2022-11-29T09:39:31.601Z,6.50
2022-11-29T09:42:13.438Z,6.45
2022-11-29T09:44:50.254Z,6.46
2022-11-29T09:47:16.516Z,6.45
2022-11-29T09:50:21.172Z,6.45
2022-11-29T09:53:04.705Z,6.41
2022-11-29T09:56:02.979Z,6.39
2022-11-29T09:58:36.985Z,6.46
2022-11-29T10:01:08.226Z,6.55
2022-11-29T10:03:40.226Z,6.57
2022-11-29T10:06:23.141Z,6.59
2022-11-29T10:09:33.665Z,6.66
2022-11-29T10:12:05.248Z,6.68
2022-11-29T10:14:43.359Z,6.69
2022-11-29T10:17:38.413Z,6.65
2022-11-29T10:20:15.523Z,6.59
2022-11-29T10:22:53.460Z,6.66
2022-11-29T10:25:30.666Z,6.69
2022-11-29T10:27:57.830Z,6.73
2022-11-29T10:30:24.289Z,6.67
2022-11-29T10:33:00.333Z,6.67
2022-11-29T10:35:27.030Z,6.73
2022-11-29T10:38:29.227Z,6.77
2022-11-29T10:40:48.245Z,6.83
2022-11-29T10:43:14.827Z,6.82
2022-11-29T10:45:50.729Z,6.80
2022-11-29T10:48:20.055Z,6.83
2022-11-29T10:50:49.128Z,6.76
2022-11-29T10:53:18.983Z,6.85
2022-11-29T10:56:16.433Z,6.83
2022-11-29T10:59:07.810Z,6.92
2022-11-29T11:01:38.504Z,6.88
2022-11-29T11:04:09.818Z,6.94
2022-11-29T11:06:45.342Z,7.02
2022-11-29T11:09:20.961Z,7.07
2022-11-29T11:11:57.765Z,7.06
2022-11-29T11:14:31.828Z,7.06
2022-11-29T11:17:25.821Z,7.06
2022-11-29T11:20:18.490Z,7.17
2022-11-29T11:22:56.141Z,7.24
2022-11-29T11:25:30.258Z,7.32
2022-11-29T11:27:58.614Z,7.29
2022-11-29T11:30:27.623Z,7.32
2022-11-29T11:33:22.520Z,7.28
2022-11-29T11:36:03.320Z,7.22
2022-11-29T11:38:30.077Z,7.18
2022-11-29T11:41:16.682Z,7.21
2022-11-29T11:43:50.504Z,7.25
2022-11-29T11:46:18.232Z,7.24
2022-11-29T11:48:44.957Z,7.32
2022-11-29T11:51:25.614Z,7.41
2022-11-29T11:53:56.381Z,7.43
2022-11-29T11:56:24.212Z,7.43
2022-11-29T11:58:54.408Z,7.37
2022-11-29T12:01:30.591Z,7.35
2022-11-29T12:03:59.728Z,7.39
2022-11-29T12:06:31.683Z,7.42
2022-11-29T12:09:18.736Z,7.46
2022-11-29T12:11:55.186Z,7.50
2022-11-29T12:14:53.750Z,7.55
2022-11-29T12:17:41.771Z,7.56
2022-11-29T12:20:24.850Z,7.57
2022-11-29T12:22:53.919Z,7.51
2022-11-29T12:25:29.342Z,7.46
2022-11-29T12:27:55.764Z,7.52
2022-11-29T12:30:22.130Z,7.57
2022-11-29T12:33:09.609Z,7.61
2022-11-29T12:35:59.717Z,7.56
2022-11-29T12:38:44.771Z,7.59
2022-11-29T12:41:22.577Z,7.60
2022-11-29T12:44:18.531Z,7.59
2022-11-29T12:47:02.089Z,7.57
2022-11-29T12:50:05.026Z,7.58
2022-11-29T12:52:48.486Z,7.57
2022-11-29T12:55:20.986Z,7.57
2022-11-29T12:58:04.348Z,7.55
2022-11-29T13:00:51.477Z,7.54
2022-11-29T13:03:27.607Z,7.47
2022-11-29T13:06:12.670Z,7.42
2022-11-29T13:08:46.479Z,7.42
2022-11-29T13:11:33.770Z,7.43
2022-11-29T13:14:34.640Z,7.45
2022-11-29T13:16:57.729Z,7.42
2022-11-29T13:19:36.821Z,7.42
2022-11-29T13:22:18.289Z,7.39
2022-11-29T13:24:47.317Z,7.37
2022-11-29T13:27:27.377Z,7.38
2022-11-29T13:29:54.374Z,7.44
2022-11-29T13:32:48.382Z,7.47
2022-11-29T13:35:14.665Z,7.49
2022-11-29T13:38:01.011Z,7.49
2022-11-29T13:40:48.513Z,7.53
2022-11-29T13:43:41.645Z,7.51
2022-11-29T13:46:28.061Z,7.49
2022-11-29T13:48:55.397Z,7.46
2022-11-29T13:51:23.358Z,7.46
2022-11-29T13:53:50.473Z,7.47
2022-11-29T13:56:46.548Z,7.49
2022-11-29T13:59:27.555Z,7.50
2022-11-29T14:01:54.601Z,7.42
2022-11-29T14:04:29.053Z,7.40
2022-11-29T14:07:08.499Z,7.34
2022-11-29T14:09:48.398Z,7.30
2022-11-29T14:12:26.845Z,7.28
2022-11-29T14:15:38.754Z,7.34
2022-11-29T14:18:09.506Z,7.37
2022-11-29T14:20:55.327Z,7.38
2022-11-29T14:23:38.212Z,7.34
2022-11-29T14:26:04.537Z,7.36
2022-11-29T14:28:37.228Z,7.37
2022-11-29T14:31:05.400Z,7.37
2022-11-29T14:33:47.003Z,7.37
2022-11-29T14:36:47.594Z,7.38
2022-11-29T14:39:32.607Z,7.41
2022-11-29T14:42:18.414Z,7.41
2022-11-29T14:44:47.116Z,7.39
2022-11-29T14:47:31.769Z,7.41
2022-11-29T14:50:01.465Z,7.42
2022-11-29T14:52:38.901Z,7.39
2022-11-29T14:55:14.458Z,7.32
2022-11-29T14:57:46.854Z,7.26
2022-11-29T15:00:15.533Z,7.21
2022-11-29T15:02:47.020Z,7.20
2022-11-29T15:05:24.437Z,7.21
2022-11-29T15:08:14.154Z,7.22
2022-11-29T15:10:44.738Z,7.25
2022-11-29T15:13:23.477Z,7.26
2022-11-29T15:16:24.106Z,7.23
2022-11-29T15:18:59.418Z,7.26
2022-11-29T15:21:47.112Z,7.24
2022-11-29T15:24:16.465Z,7.22
2022-11-29T15:27:03.909Z,7.20
2022-11-29T15:29:31.242Z,7.16
2022-11-29T15:32:01.557Z,7.17
2022-11-29T15:34:35.176Z,7.16
2022-11-29T15:37:01.670Z,7.13
2022-11-29T15:39:28.141Z,7.14
2022-11-29T15:42:03.799Z,7.17
2022-11-29T15:44:32.726Z,7.16
2022-11-29T15:47:22.184Z,7.16
2022-11-29T15:49:49.965Z,7.17
2022-11-29T15:52:27.828Z,7.18
2022-11-29T15:55:02.224Z,7.16
2022-11-29T15:57:49.526Z,7.10
2022-11-29T16:00:24.116Z,7.08
2022-11-29T16:02:56.096Z,7.04
2022-11-29T16:05:29.314Z,7.04
2022-11-29T16:08:01.495Z,6.95
2022-11-29T16:10:43.952Z,6.94
2022-11-29T16:13:25.753Z,6.88
2022-11-29T16:16:10.690Z,6.86
2022-11-29T16:18:41.030Z,6.88
2022-11-29T16:21:20.576Z,6.86
2022-11-29T16:23:46.969Z,6.77
2022-11-29T16:26:18.970Z,6.77
2022-11-29T16:28:48.501Z,6.74
2022-11-29T16:31:23.295Z,6.75
2022-11-29T16:33:52.270Z,6.75
2022-11-29T16:36:26.756Z,6.75
2022-11-29T16:38:59.574Z,6.73
2022-11-29T16:41:37.087Z,6.69
2022-11-29T16:44:06.102Z,6.68
2022-11-29T16:46:35.191Z,6.67
2022-11-29T16:49:23.393Z,6.73
2022-11-29T16:51:51.627Z,6.73
2022-11-29T16:54:37.746Z,6.72
2022-11-29T16:57:06.423Z,6.65
2022-11-29T16:59:35.130Z,6.64
2022-11-29T17:02:01.640Z,6.66
2022-11-29T17:04:27.974Z,6.66
2022-11-29T17:06:56.127Z,6.63
2022-11-29T17:09:26.490Z,6.62
2022-11-29T17:11:54.182Z,6.64
2022-11-29T17:14:20.645Z,6.63
2022-11-29T17:16:49.901Z,6.64
2022-11-29T17:19:16.861Z,6.59
2022-11-29T17:21:43.692Z,6.55
2022-11-29T17:24:13.444Z,6.57
2022-11-29T17:26:40.875Z,6.56
2022-11-29T17:29:07.830Z,6.55
2022-11-29T17:31:34.321Z,6.54
2022-11-29T17:34:01.026Z,6.58
2022-11-29T17:36:28.190Z,6.63
2022-11-29T17:38:54.922Z,6.62
2022-11-29T17:41:23.982Z,6.60
2022-11-29T17:43:51.865Z,6.59
2022-11-29T17:46:24.142Z,6.56
2022-11-29T17:48:52.215Z,6.55
2022-11-29T17:51:49.827Z,6.49
2022-11-29T17:54:09.292Z,6.41
2022-11-29T17:56:35.700Z,6.31
2022-11-29T17:59:03.977Z,6.29
2022-11-29T18:01:35.715Z,6.29
2022-11-29T18:04:03.916Z,6.28
2022-11-29T18:06:34.975Z,6.30
2022-11-29T18:09:02.480Z,6.32
2022-11-29T18:11:45.001Z,6.32
2022-11-29T18:14:16.176Z,6.36
2022-11-29T18:16:43.032Z,6.39
2022-11-29T18:19:12.236Z,6.42
2022-11-29T18:21:39.316Z,6.42
2022-11-29T18:24:08.889Z,6.43
2022-11-29T18:26:36.944Z,6.43
2022-11-29T18:29:04.953Z,6.45
2022-11-29T18:31:37.293Z,6.47
2022-11-29T18:34:09.765Z,6.48
2022-11-29T18:36:39.235Z,6.50
2022-11-29T18:39:12.438Z,6.52
2022-11-29T18:41:41.181Z,6.47
2022-11-29T18:44:10.249Z,6.50
2022-11-29T18:46:38.535Z,6.46
2022-11-29T18:49:07.371Z,6.44
2022-11-29T18:51:35.086Z,6.39
2022-11-29T18:54:01.981Z,6.27
2022-11-29T18:56:30.542Z,6.21
2022-11-29T18:59:00.503Z,6.20
2022-11-29T19:01:29.283Z,6.19
2022-11-29T19:03:59.240Z,6.13
2022-11-29T19:06:30.796Z,6.13
2022-11-29T19:09:02.448Z,6.10
2022-11-29T19:11:31.001Z,6.09
2022-11-29T19:14:03.228Z,6.10
2022-11-29T19:16:31.826Z,6.10
2022-11-29T19:18:59.694Z,6.11
2022-11-29T19:21:27.930Z,6.13
2022-11-29T19:24:01.374Z,6.15
2022-11-29T19:26:30.185Z,6.15
2022-11-29T19:28:57.329Z,6.18
2022-11-29T19:31:25.128Z,6.20
2022-11-29T19:33:52.479Z,6.24
2022-11-29T19:36:22.225Z,6.24
2022-11-29T19:38:53.496Z,6.26
2022-11-29T19:41:25.070Z,6.27
2022-11-29T19:43:52.081Z,6.27
2022-11-29T19:46:27.832Z,6.26
2022-11-29T19:48:56.096Z,6.29
2022-11-29T19:51:23.455Z,6.26
2022-11-29T19:53:55.199Z,6.24
2022-11-29T19:56:22.592Z,6.22
2022-11-29T19:58:49.626Z,6.21
2022-11-29T20:01:22.896Z,6.20
2022-11-29T20:03:49.657Z,6.15
2022-11-29T20:06:17.440Z,6.16
2022-11-29T20:08:44.866Z,6.15
2022-11-29T20:11:17.321Z,6.13
2022-11-29T20:13:45.517Z,6.11
2022-11-29T20:16:18.317Z,6.09
2022-11-29T20:18:50.607Z,6.10
2022-11-29T20:21:23.837Z,6.05
2022-11-29T20:24:02.393Z,6.05
2022-11-29T20:26:30.978Z,6.02
2022-11-29T20:28:57.651Z,6.04
2022-11-29T20:31:24.135Z,6.06
2022-11-29T20:33:53.223Z,6.08
2022-11-29T20:36:43.214Z,6.09
2022-11-29T20:39:32.003Z,6.11
2022-11-29T20:42:14.862Z,6.10
2022-11-29T20:44:57.649Z,6.11
2022-11-29T20:47:33.497Z,6.09
2022-11-29T20:50:00.220Z,6.08
2022-11-29T20:52:47.864Z,6.09
2022-11-29T20:55:14.393Z,6.03
2022-11-29T20:57:40.732Z,6.02
2022-11-29T21:00:11.231Z,6.05
2022-11-29T21:02:38.057Z,6.08
2022-11-29T21:05:05.466Z,6.11
2022-11-29T21:07:31.864Z,6.08
2022-11-29T21:10:01.396Z,6.03
2022-11-29T21:12:29.521Z,6.04
2022-11-29T21:14:56.539Z,6.06
2022-11-29T21:17:23.261Z,6.04
2022-11-29T21:19:50.168Z,6.07
2022-11-29T21:22:50.265Z,6.07
2022-11-29T21:25:55.151Z,6.09
2022-11-29T21:28:28.565Z,6.11
2022-11-29T21:30:55.162Z,6.13
2022-11-29T21:33:21.839Z,6.12
2022-11-29T21:35:53.761Z,6.11
2022-11-29T21:38:22.846Z,6.11
2022-11-29T21:40:49.211Z,6.11
2022-11-29T21:43:15.602Z,6.10
2022-11-29T21:45:41.948Z,6.07
2022-11-29T21:48:28.700Z,6.06
2022-11-29T21:50:56.498Z,6.03
2022-11-29T21:53:22.882Z,6.07
2022-11-29T21:55:55.595Z,6.08
2022-11-29T21:58:22.062Z,6.06
2022-11-29T22:00:48.397Z,6.14
2022-11-29T22:03:15.798Z,6.25
2022-11-29T22:05:42.166Z,6.35
2022-11-29T22:08:08.551Z,6.38
2022-11-29T22:10:34.906Z,6.39
2022-11-29T22:13:01.380Z,6.43
2022-11-29T22:15:29.049Z,6.43
2022-11-29T22:17:56.265Z,6.39
2022-11-29T22:20:22.735Z,6.37
2022-11-29T22:22:49.308Z,6.38
2022-11-29T22:25:16.284Z,6.37
2022-11-29T22:27:42.679Z,6.33
2022-11-29T22:30:09.435Z,6.33
2022-11-29T22:32:35.766Z,6.28
2022-11-29T22:35:02.106Z,6.24
2022-11-29T22:37:28.452Z,6.21
2022-11-29T22:39:54.778Z,6.20
2022-11-29T22:42:21.158Z,6.16
2022-11-29T22:44:47.707Z,6.12
2022-11-29T22:47:14.164Z,6.08
2022-11-29T22:49:40.546Z,6.05
2022-11-29T22:52:06.882Z,6.05
2022-11-29T22:54:33.274Z,6.08
2022-11-29T22:56:59.646Z,6.07
2022-11-29T22:59:26.043Z,6.09
2022-11-29T23:01:52.442Z,6.12
2022-11-29T23:04:18.872Z,6.13
2022-11-29T23:06:46.496Z,6.13
2022-11-29T23:09:22.018Z,6.15
2022-11-29T23:11:53.727Z,6.14
2022-11-29T23:14:21.946Z,6.18
2022-11-29T23:16:48.531Z,6.20
2022-11-29T23:19:15.065Z,6.22
2022-11-29T23:21:41.894Z,6.23
2022-11-29T23:24:08.336Z,6.22
2022-11-29T23:26:39.584Z,6.17
2022-11-29T23:29:08.380Z,6.14
2022-11-29T23:31:34.821Z,6.15
2022-11-29T23:34:02.372Z,6.17
2022-11-29T23:36:29.218Z,6.15
2022-11-29T23:38:55.936Z,6.10
2022-11-29T23:41:22.310Z,6.10
2022-11-29T23:43:48.660Z,6.10
2022-11-29T23:46:17.983Z,6.10
2022-11-29T23:48:44.799Z,6.09
2022-11-29T23:51:12.358Z,6.07
2022-11-29T23:53:39.774Z,6.01
2022-11-29T23:56:10.958Z,6.05
2022-11-29T23:58:38.000Z,6.07
